Garland, TX (75043)

2:16 PM CST on February 14, 2016 (GMT -0600)
Club Hill | | Change Station
CLOSE
Current Station
Personal Weather Station
Location: Garland, TX
Elevation: 512 ft
Nearby Weather Stations
Active Advisory: Flood Warning

Elev 512 ft 32.88 °N, 96.61 °W | Updated 7 minutes ago

Overcast
Overcast
65.7 °F
Feels Like 65.7 °F
N
3.2
Wind Variable Wind from SW

Today
High -- | Low -- °F
--% Chance of Precip.
Yesterday
High -- | Low -- °F
Precip. -- in
Pressure 29.90 in
Visibility 10.0 miles
Clouds Scattered Clouds 4200 ft
Overcast 4800 ft
Dew Point 56 °F
Humidity 70%
Rainfall 0.00 in
Snow Depth Not available.
7:11 AM 6:10 PM
Waxing Crescent, 45% visible
METAR KHQZ 141950Z 19011G15KT 10SM SCT042 OVC048 18/12 A2990
Pressure 29.90 in
Visibility 10.0 miles
Clouds Scattered Clouds 4200 ft
Overcast 4800 ft
Dew Point 56 °F
Humidity 70%
Rainfall 0.00 in
Snow Depth Not available.
7:11 AM 6:10 PM
Waxing Crescent, 45% visible
METAR KHQZ 141950Z 19011G15KT 10SM SCT042 OVC048 18/12 A2990

10-Day Weather Forecast

Almanac

Astronomy

Feb. 14, 2016 Rise Set
Actual Time
Civil Twilight
Nautical Twilight
Astronomical Twilight
Moon
Length of Visible Light
Length of Day
Tomorrow will be .
, % of the Moon is Illuminated

Today's Extremes

State Highs State Lows

Community

WunderPhotos

Upload Photos

1,892,880 photos uploaded!

WunderBlog® & News

Nearby

Air Quality

  Air Quality AQ Index Pollutant
Not available.

Snow Depth

Station Depth Elevation

Earthquake Activity

City Distance Mag. Time & Date
Minimum magnitude displayed is 2.5.

Coastal Water Temperatures

Place Temperature

Stations

Nearby Weather Stations

Station Location Temp. Windchill Dew Point Humidity Wind Precip. Elev Updated Type
                   

Watches & Warnings

Flood Warning
Issued: 8:13 AM CST Feb. 14, 2016 – National Weather Service

The Flood Warning continues for
the Elm Fork Trinity River near Carrollton.
* At 0715 am Sunday the stage was 8.31 feet.
* Flood stage is 8 feet.
* Minor flooding is occurring and minor flooding is forecast.
* Forecast... the river will remain near 8 feet for the next several
days.
* At 8 feet, minor flooding will occur downstream from the gauge.


Lat... Lon 3300 9700 3287 9699 3287 9687 3300 9688